createdAt,value
2023-03-18T00:02:21.824Z,56.25
2023-03-18T00:07:24.571Z,56.48
2023-03-18T00:12:27.882Z,56.44
2023-03-18T00:17:32.387Z,56.43
2023-03-18T00:22:36.002Z,56.74
2023-03-18T00:27:40.217Z,56.91
2023-03-18T00:32:44.406Z,56.89
2023-03-18T00:37:48.729Z,56.72
2023-03-18T00:42:57.558Z,56.88
2023-03-18T00:48:01.791Z,56.94
2023-03-18T00:53:05.327Z,56.87
2023-03-18T00:58:08.610Z,56.89
2023-03-18T01:03:14.104Z,57.08
2023-03-18T01:08:17.313Z,56.97
2023-03-18T01:13:21.304Z,57.26
2023-03-18T01:18:26.033Z,57.14
2023-03-18T01:23:30.218Z,57.15
2023-03-18T01:28:33.751Z,57.15
2023-03-18T01:33:39.021Z,57.36
2023-03-18T01:38:42.405Z,57.30
2023-03-18T01:43:48.501Z,57.17
2023-03-18T01:48:52.891Z,57.28
2023-03-18T01:54:00.135Z,57.34
2023-03-18T01:59:03.186Z,57.44
2023-03-18T02:04:10.349Z,57.41
2023-03-18T02:14:25.372Z,57.56
2023-03-18T02:19:43.547Z,57.85
2023-03-18T02:25:10.262Z,57.71
2023-03-18T02:30:19.157Z,57.92
2023-03-18T02:35:25.021Z,57.96
2023-03-18T02:40:31.781Z,58.20
2023-03-18T02:45:46.118Z,58.18
2023-03-18T02:50:50.212Z,58.35
2023-03-18T02:55:53.042Z,58.54
2023-03-18T03:00:58.444Z,58.54
2023-03-18T03:06:01.685Z,58.70
2023-03-18T03:11:05.485Z,58.82
2023-03-18T03:16:14.009Z,58.99
2023-03-18T03:21:17.708Z,59.21
2023-03-18T03:26:20.717Z,59.08
2023-03-18T03:31:26.651Z,59.24
2023-03-18T03:36:29.765Z,59.43
2023-03-18T03:41:32.877Z,59.63
2023-03-18T03:46:37.293Z,59.53
2023-03-18T03:51:40.578Z,59.77
2023-03-18T03:56:43.802Z,60.07
2023-03-18T04:01:48.399Z,60.13
2023-03-18T04:06:51.258Z,60.23
2023-03-18T04:11:54.065Z,60.23
2023-03-18T04:17:00.358Z,60.54
2023-03-18T04:22:04.659Z,60.67
2023-03-18T04:27:07.885Z,60.58
2023-03-18T04:32:12.483Z,60.67
2023-03-18T04:37:19.739Z,60.57
2023-03-18T04:42:24.455Z,60.72
2023-03-18T04:47:29.083Z,60.78
2023-03-18T04:52:33.588Z,60.78
2023-03-18T04:57:37.638Z,60.86
2023-03-18T05:02:45.279Z,61.16
2023-03-18T05:07:48.580Z,61.14
2023-03-18T05:12:54.380Z,61.09
2023-03-18T05:18:06.286Z,61.19
2023-03-18T05:23:10.385Z,61.27
2023-03-18T05:28:19.676Z,61.47
2023-03-18T05:33:35.990Z,61.67
2023-03-18T05:38:39.109Z,61.94
2023-03-18T05:43:42.703Z,61.96
2023-03-18T05:48:47.198Z,62.00
2023-03-18T05:53:50.480Z,62.09
2023-03-18T05:58:58.675Z,62.27
2023-03-18T06:04:24.896Z,62.27
2023-03-18T06:09:28.744Z,62.22
2023-03-18T06:14:31.637Z,62.25
2023-03-18T06:19:39.831Z,62.51
2023-03-18T06:24:45.942Z,62.43
2023-03-18T06:29:52.019Z,62.62
2023-03-18T06:34:56.785Z,62.66
2023-03-18T06:40:00.215Z,62.54
2023-03-18T06:45:03.273Z,62.65
2023-03-18T06:50:20.601Z,62.89
2023-03-18T06:55:23.841Z,62.66
2023-03-18T07:00:27.445Z,62.96
2023-03-18T07:05:33.282Z,62.79
2023-03-18T07:10:37.099Z,62.73
2023-03-18T07:15:46.649Z,62.87
2023-03-18T07:20:51.099Z,62.89
2023-03-18T07:25:54.155Z,63.13
2023-03-18T07:30:58.050Z,62.90
2023-03-18T07:36:02.331Z,62.83
2023-03-18T07:41:06.081Z,62.92
2023-03-18T07:46:09.045Z,62.99
2023-03-18T07:51:13.370Z,63.06
2023-03-18T07:56:16.289Z,63.14
2023-03-18T08:01:19.521Z,63.08
2023-03-18T08:06:23.957Z,52.56
2023-03-18T08:11:27.354Z,46.14
2023-03-18T08:16:30.208Z,46.31
2023-03-18T08:21:34.477Z,48.34
2023-03-18T08:26:37.618Z,49.10
2023-03-18T08:31:40.483Z,49.95
2023-03-18T08:36:45.083Z,51.37
2023-03-18T08:41:48.713Z,51.78
2023-03-18T08:46:51.636Z,52.77
2023-03-18T08:51:56.573Z,53.05
2023-03-18T08:57:00.545Z,53.28
2023-03-18T09:02:03.796Z,53.67
2023-03-18T09:07:08.069Z,53.90
2023-03-18T09:12:11.983Z,54.15
2023-03-18T09:17:14.857Z,54.38
2023-03-18T09:22:19.342Z,54.64
2023-03-18T09:27:22.166Z,55.00
2023-03-18T09:32:25.630Z,55.08
2023-03-18T09:37:29.833Z,55.07
2023-03-18T09:42:50.438Z,55.37
2023-03-18T09:48:09.652Z,55.45
2023-03-18T09:53:20.830Z,55.39
2023-03-18T09:58:29.577Z,55.17
2023-03-18T10:03:38.437Z,55.37
2023-03-18T10:08:54.297Z,55.43
2023-03-18T10:14:08.445Z,55.65
2023-03-18T10:19:11.379Z,55.79
2023-03-18T10:24:28.083Z,55.93
2023-03-18T10:29:40.620Z,55.99
2023-03-18T10:34:57.706Z,55.95
2023-03-18T10:40:02.318Z,55.64
2023-03-18T10:45:14.879Z,55.52
2023-03-18T10:50:21.510Z,55.43
2023-03-18T10:55:31.990Z,55.03
2023-03-18T11:00:35.609Z,54.76
2023-03-18T11:05:38.941Z,54.73
2023-03-18T11:10:47.564Z,55.05
2023-03-18T11:15:52.983Z,55.49
2023-03-18T11:21:00.876Z,55.95
2023-03-18T11:31:18.206Z,56.14
2023-03-18T11:36:24.985Z,56.55
2023-03-18T11:41:30.467Z,57.29
2023-03-18T11:46:37.556Z,57.60
2023-03-18T11:51:48.473Z,57.01
2023-03-18T11:56:57.267Z,48.67
2023-03-18T12:02:19.550Z,48.97
2023-03-18T12:07:42.902Z,49.56
2023-03-18T12:13:00.664Z,50.13
2023-03-18T12:18:18.024Z,49.65
2023-03-18T12:23:52.056Z,49.22
2023-03-18T12:29:36.284Z,50.79
2023-03-18T12:34:56.100Z,50.32
2023-03-18T12:40:27.514Z,51.34
2023-03-18T12:45:37.448Z,51.88
2023-03-18T12:50:48.426Z,52.02
2023-03-18T12:55:58.601Z,52.14
2023-03-18T13:01:09.798Z,52.14
2023-03-18T13:06:20.246Z,52.71
2023-03-18T13:11:36.046Z,52.58
2023-03-18T13:16:42.101Z,52.64
2023-03-18T13:21:51.522Z,52.84
2023-03-18T13:27:19.624Z,52.85
2023-03-18T13:32:41.363Z,52.88
2023-03-18T13:38:20.656Z,53.17
2023-03-18T13:43:26.591Z,53.27
2023-03-18T13:48:33.592Z,53.02
2023-03-18T13:53:43.982Z,53.26
2023-03-18T13:58:48.458Z,53.37
2023-03-18T14:03:59.780Z,53.45
2023-03-18T14:09:24.325Z,53.53
2023-03-18T14:14:57.603Z,53.70
2023-03-18T14:20:17.043Z,53.72
2023-03-18T14:25:24.454Z,54.28
2023-03-18T14:30:55.701Z,55.11
2023-03-18T14:36:03.273Z,54.42
2023-03-18T14:41:17.448Z,54.15
2023-03-18T14:46:25.284Z,53.55
2023-03-18T14:51:32.583Z,53.42
2023-03-18T14:56:40.461Z,53.31
2023-03-18T15:01:48.007Z,53.37
2023-03-18T15:06:53.277Z,53.07
2023-03-18T15:11:57.679Z,52.82
2023-03-18T15:17:02.254Z,52.90
2023-03-18T15:22:08.697Z,53.43
2023-03-18T15:27:16.001Z,53.23
2023-03-18T15:32:24.660Z,53.48
2023-03-18T15:37:42.153Z,53.35
2023-03-18T15:42:45.915Z,52.90
2023-03-18T15:47:49.291Z,52.39
2023-03-18T15:53:03.705Z,52.14
2023-03-18T15:58:24.069Z,52.10
2023-03-18T16:03:29.302Z,51.81
2023-03-18T16:08:33.715Z,51.92
2023-03-18T16:13:38.847Z,52.49
2023-03-18T16:18:43.322Z,52.53
2023-03-18T16:23:48.033Z,53.09
2023-03-18T16:28:50.762Z,52.42
2023-03-18T16:33:56.064Z,52.67
2023-03-18T16:39:00.128Z,52.43
2023-03-18T16:44:03.042Z,52.75
2023-03-18T16:49:06.077Z,52.66
2023-03-18T16:54:18.941Z,52.71
2023-03-18T16:59:22.166Z,53.06
2023-03-18T17:04:29.242Z,53.59
2023-03-18T17:09:33.577Z,53.47
2023-03-18T17:14:39.752Z,53.92
2023-03-18T17:19:42.631Z,53.96
2023-03-18T17:24:47.271Z,53.78
2023-03-18T17:29:50.607Z,53.61
2023-03-18T17:34:54.811Z,53.46
2023-03-18T17:39:59.254Z,54.27
2023-03-18T17:45:08.822Z,54.01
2023-03-18T17:50:15.005Z,54.09
2023-03-18T17:55:22.666Z,53.89
2023-03-18T18:00:27.419Z,54.02
2023-03-18T18:05:30.705Z,54.35
2023-03-18T18:10:35.366Z,54.47
2023-03-18T18:15:38.183Z,54.52
2023-03-18T18:20:41.121Z,54.76
2023-03-18T18:25:45.439Z,54.67
2023-03-18T18:30:48.653Z,54.83
2023-03-18T18:35:51.494Z,54.97
2023-03-18T18:40:57.412Z,54.80
2023-03-18T18:46:01.141Z,54.86
2023-03-18T18:51:04.724Z,55.13
2023-03-18T18:56:15.884Z,55.05
2023-03-18T19:01:19.734Z,55.15
2023-03-18T19:06:27.070Z,55.11
2023-03-18T19:11:31.474Z,55.01
2023-03-18T19:16:35.845Z,55.06
2023-03-18T19:21:38.617Z,56.14
2023-03-18T19:26:43.038Z,53.49
2023-03-18T19:31:45.903Z,55.57
2023-03-18T19:36:52.894Z,56.95
2023-03-18T19:41:57.124Z,56.83
2023-03-18T19:47:01.060Z,57.16
2023-03-18T19:52:04.137Z,57.08
2023-03-18T19:57:16.874Z,57.45
2023-03-18T20:02:22.790Z,57.47
2023-03-18T20:07:27.722Z,57.62
2023-03-18T20:12:35.770Z,57.63
2023-03-18T20:17:40.304Z,57.67
2023-03-18T20:22:48.104Z,57.88
2023-03-18T20:27:56.089Z,57.80
2023-03-18T20:33:00.156Z,57.77
2023-03-18T20:38:07.294Z,58.09
2023-03-18T20:43:15.379Z,58.04
2023-03-18T20:48:18.574Z,57.98
2023-03-18T20:53:24.648Z,58.23
2023-03-18T20:58:29.026Z,58.24
2023-03-18T21:03:34.430Z,58.53
2023-03-18T21:08:37.284Z,58.58
2023-03-18T21:13:41.712Z,58.63
2023-03-18T21:18:46.397Z,58.77
2023-03-18T21:23:49.787Z,58.62
2023-03-18T21:28:53.948Z,58.72
2023-03-18T21:33:57.456Z,58.07
2023-03-18T21:39:00.278Z,58.57
2023-03-18T21:44:04.516Z,58.88
2023-03-18T21:49:07.491Z,58.85
2023-03-18T21:54:18.324Z,58.86
2023-03-18T21:59:22.449Z,58.62
2023-03-18T22:04:25.241Z,58.83
2023-03-18T22:09:28.226Z,58.82
2023-03-18T22:14:32.417Z,58.63
2023-03-18T22:19:35.143Z,58.73
2023-03-18T22:24:37.938Z,58.67
2023-03-18T22:29:42.074Z,58.91
2023-03-18T22:34:45.048Z,58.75
2023-03-18T22:39:47.809Z,58.88
2023-03-18T22:44:52.327Z,58.67
2023-03-18T22:49:55.245Z,58.70
2023-03-18T22:55:00.974Z,58.66
2023-03-18T23:00:14.968Z,58.86
2023-03-18T23:05:20.416Z,58.78
2023-03-18T23:10:23.459Z,58.80
2023-03-18T23:15:27.585Z,58.76
2023-03-18T23:20:30.416Z,58.82
2023-03-18T23:25:33.402Z,58.72
2023-03-18T23:30:40.056Z,58.88
2023-03-18T23:35:43.959Z,59.00
2023-03-18T23:40:46.929Z,58.81
2023-03-18T23:45:51.241Z,58.99
2023-03-18T23:50:54.088Z,58.98
2023-03-18T23:55:56.958Z,59.01
